Terminal Aerodrome Forecast
Issued by NWS

Home | Current Version | Previous Version | Text Only | Print | Product List | Glossary On
Versions: 1 2 3 4 5 6 7 8 9 10 11 12 13
000
FTUS42 TJSJ 290522
TAFJPS
TAF
TJPS 290522Z 2906/3006 07005KT P6SM VCSH FEW020 SCT060 SCT110
     FM291330 13010KT P6SM SCT030 BKN060
     FM292330 07005KT P6SM FEW030 SCT060
      AMD NOT SKED 2912/3003=

USA.gov is the U.S. government's official web portal to all federal, state and local government web resources and services.